sensor_id;sensor_type;location;lat;lon;timestamp;P1;durP1;ratioP1;P2;durP2;ratioP2
1991;SDS011;997;48.448;8.924;2023-05-19T07:47:14;5.33;;;4.10;;
1991;SDS011;997;48.448;8.924;2023-05-19T07:49:45;4.93;;;4.43;;
1991;SDS011;997;48.448;8.924;2023-05-19T07:52:18;6.87;;;4.87;;
1991;SDS011;997;48.448;8.924;2023-05-19T07:55:21;4.27;;;3.87;;
1991;SDS011;997;48.448;8.924;2023-05-19T08:01:29;7.83;;;4.00;;
1991;SDS011;997;48.448;8.924;2023-05-19T08:03:58;5.13;;;4.63;;
1991;SDS011;997;48.448;8.924;2023-05-19T08:06:52;4.97;;;4.50;;
1991;SDS011;997;48.448;8.924;2023-05-19T10:22:22;4.67;;;3.80;;
1991;SDS011;997;48.448;8.924;2023-05-19T10:24:48;5.17;;;4.03;;
1991;SDS011;997;48.448;8.924;2023-05-19T10:27:13;5.60;;;4.40;;
1991;SDS011;997;48.448;8.924;2023-05-19T10:29:42;3.50;;;3.20;;
1991;SDS011;997;48.448;8.924;2023-05-19T10:32:13;4.70;;;4.20;;
1991;SDS011;997;48.448;8.924;2023-05-19T10:37:43;6.90;;;4.43;;
1991;SDS011;997;48.448;8.924;2023-05-19T10:40:33;7.63;;;4.13;;
1991;SDS011;997;48.448;8.924;2023-05-19T10:45:43;14.20;;;9.73;;
1991;SDS011;997;48.448;8.924;2023-05-19T10:48:15;5.47;;;4.97;;
1991;SDS011;997;48.448;8.924;2023-05-19T10:50:43;554.37;;;375.83;;
1991;SDS011;997;48.448;8.924;2023-05-19T10:53:17;599.37;;;474.20;;
1991;SDS011;997;48.448;8.924;2023-05-19T10:55:51;490.63;;;407.57;;
1991;SDS011;997;48.448;8.924;2023-05-19T10:58:35;47.30;;;37.60;;
1991;SDS011;997;48.448;8.924;2023-05-19T11:01:08;149.53;;;133.73;;
1991;SDS011;997;48.448;8.924;2023-05-19T11:06:26;39.00;;;34.50;;
1991;SDS011;997;48.448;8.924;2023-05-19T11:09:00;7.37;;;5.30;;
1991;SDS011;997;48.448;8.924;2023-05-19T11:11:51;34.77;;;31.40;;
1991;SDS011;997;48.448;8.924;2023-05-19T11:14:18;50.53;;;45.93;;
1991;SDS011;997;48.448;8.924;2023-05-19T11:16:47;80.43;;;73.93;;
1991;SDS011;997;48.448;8.924;2023-05-19T11:19:18;60.37;;;55.73;;
1991;SDS011;997;48.448;8.924;2023-05-19T11:21:52;8.47;;;7.60;;
1991;SDS011;997;48.448;8.924;2023-05-19T11:25:05;10.33;;;4.53;;
1991;SDS011;997;48.448;8.924;2023-05-19T11:29:58;6.53;;;3.70;;
1991;SDS011;997;48.448;8.924;2023-05-19T11:32:38;5.80;;;4.83;;
1991;SDS011;997;48.448;8.924;2023-05-19T11:35:07;6.67;;;5.13;;
1991;SDS011;997;48.448;8.924;2023-05-19T11:37:34;17.23;;;15.90;;
1991;SDS011;997;48.448;8.924;2023-05-19T11:40:01;6.10;;;5.50;;
1991;SDS011;997;48.448;8.924;2023-05-19T11:42:34;34.37;;;31.50;;
1991;SDS011;997;48.448;8.924;2023-05-19T11:45:00;15.50;;;14.10;;
1991;SDS011;997;48.448;8.924;2023-05-19T11:47:27;6.87;;;5.00;;
1991;SDS011;997;48.448;8.924;2023-05-19T11:49:55;11.40;;;5.30;;
1991;SDS011;997;48.448;8.924;2023-05-19T11:52:22;6.23;;;5.00;;
1991;SDS011;997;48.448;8.924;2023-05-19T11:54:49;4.83;;;4.33;;
1991;SDS011;997;48.448;8.924;2023-05-19T11:57:15;5.23;;;4.30;;
1991;SDS011;997;48.448;8.924;2023-05-19T11:59:41;7.43;;;6.80;;
1991;SDS011;997;48.448;8.924;2023-05-19T12:02:23;8.00;;;4.53;;
1991;SDS011;997;48.448;8.924;2023-05-19T12:04:50;4.53;;;4.23;;
1991;SDS011;997;48.448;8.924;2023-05-19T12:07:20;6.47;;;4.27;;
1991;SDS011;997;48.448;8.924;2023-05-19T12:10:04;5.60;;;4.70;;
1991;SDS011;997;48.448;8.924;2023-05-19T12:13:04;4.83;;;4.40;;
1991;SDS011;997;48.448;8.924;2023-05-19T12:15:36;4.57;;;4.17;;
1991;SDS011;997;48.448;8.924;2023-05-19T12:18:02;5.03;;;4.47;;
1991;SDS011;997;48.448;8.924;2023-05-19T12:20:29;4.83;;;4.40;;
1991;SDS011;997;48.448;8.924;2023-05-19T12:22:59;4.97;;;4.47;;
1991;SDS011;997;48.448;8.924;2023-05-19T12:25:29;8.27;;;4.57;;
1991;SDS011;997;48.448;8.924;2023-05-19T12:27:57;6.57;;;4.53;;
1991;SDS011;997;48.448;8.924;2023-05-19T12:30:28;6.70;;;4.93;;
1991;SDS011;997;48.448;8.924;2023-05-19T12:33:13;4.57;;;4.10;;
1991;SDS011;997;48.448;8.924;2023-05-19T12:35:40;6.00;;;4.90;;
1991;SDS011;997;48.448;8.924;2023-05-19T12:38:06;4.57;;;4.17;;
1991;SDS011;997;48.448;8.924;2023-05-19T12:40:32;4.87;;;4.37;;
1991;SDS011;997;48.448;8.924;2023-05-19T12:43:05;4.17;;;3.83;;
1991;SDS011;997;48.448;8.924;2023-05-19T12:45:46;5.00;;;4.40;;
1991;SDS011;997;48.448;8.924;2023-05-19T12:48:12;5.53;;;4.17;;
1991;SDS011;997;48.448;8.924;2023-05-19T12:50:42;10.67;;;4.80;;
1991;SDS011;997;48.448;8.924;2023-05-19T12:53:11;4.17;;;3.80;;
1991;SDS011;997;48.448;8.924;2023-05-19T12:55:40;6.93;;;4.00;;
1991;SDS011;997;48.448;8.924;2023-05-19T12:58:08;4.33;;;3.93;;
1991;SDS011;997;48.448;8.924;2023-05-19T13:00:45;5.33;;;4.50;;
1991;SDS011;997;48.448;8.924;2023-05-19T13:03:16;5.67;;;5.07;;
1991;SDS011;997;48.448;8.924;2023-05-19T13:05:46;5.07;;;4.30;;
1991;SDS011;997;48.448;8.924;2023-05-19T13:08:18;5.87;;;4.70;;
1991;SDS011;997;48.448;8.924;2023-05-19T13:10:48;4.73;;;4.27;;
1991;SDS011;997;48.448;8.924;2023-05-19T13:13:14;5.60;;;5.10;;
1991;SDS011;997;48.448;8.924;2023-05-19T13:15:40;5.13;;;4.63;;
1991;SDS011;997;48.448;8.924;2023-05-19T13:18:08;5.20;;;4.20;;
1991;SDS011;997;48.448;8.924;2023-05-19T13:20:35;5.57;;;4.07;;
1991;SDS011;997;48.448;8.924;2023-05-19T13:23:03;7.03;;;4.50;;
1991;SDS011;997;48.448;8.924;2023-05-19T13:25:32;4.30;;;3.90;;
1991;SDS011;997;48.448;8.924;2023-05-19T13:27:58;5.23;;;4.73;;
1991;SDS011;997;48.448;8.924;2023-05-19T13:30:25;7.47;;;5.50;;
1991;SDS011;997;48.448;8.924;2023-05-19T13:32:52;7.80;;;4.70;;
1991;SDS011;997;48.448;8.924;2023-05-19T13:35:18;5.23;;;4.10;;
1991;SDS011;997;48.448;8.924;2023-05-19T13:37:44;4.40;;;3.63;;
1991;SDS011;997;48.448;8.924;2023-05-19T13:40:10;6.70;;;5.97;;
1991;SDS011;997;48.448;8.924;2023-05-19T13:42:37;5.90;;;4.13;;
1991;SDS011;997;48.448;8.924;2023-05-19T13:45:03;4.73;;;4.30;;
1991;SDS011;997;48.448;8.924;2023-05-19T13:47:29;4.63;;;4.20;;
1991;SDS011;997;48.448;8.924;2023-05-19T13:49:56;4.90;;;4.50;;
1991;SDS011;997;48.448;8.924;2023-05-19T13:52:22;7.73;;;4.67;;
1991;SDS011;997;48.448;8.924;2023-05-19T13:54:48;4.93;;;4.47;;
1991;SDS011;997;48.448;8.924;2023-05-19T13:57:14;5.03;;;3.93;;
1991;SDS011;997;48.448;8.924;2023-05-19T13:59:40;5.80;;;4.40;;
1991;SDS011;997;48.448;8.924;2023-05-19T14:02:07;5.67;;;4.50;;
1991;SDS011;997;48.448;8.924;2023-05-19T14:04:37;6.13;;;5.00;;
1991;SDS011;997;48.448;8.924;2023-05-19T14:07:20;4.47;;;4.07;;
1991;SDS011;997;48.448;8.924;2023-05-19T14:10:09;5.17;;;4.80;;
1991;SDS011;997;48.448;8.924;2023-05-19T14:12:35;5.87;;;5.03;;
1991;SDS011;997;48.448;8.924;2023-05-19T14:15:01;6.63;;;4.67;;
1991;SDS011;997;48.448;8.924;2023-05-19T14:17:28;5.27;;;4.87;;
1991;SDS011;997;48.448;8.924;2023-05-19T14:19:56;4.93;;;4.50;;
